createdAt,value
2022-09-22T00:01:22.380Z,3.82
2022-09-22T00:03:52.967Z,3.80
2022-09-22T00:06:22.980Z,3.82
2022-09-22T00:08:52.535Z,3.83
2022-09-22T00:11:24.175Z,3.77
2022-09-22T00:13:54.497Z,3.73
2022-09-22T00:16:24.711Z,3.67
2022-09-22T00:18:52.867Z,3.64
2022-09-22T00:21:23.377Z,3.58
2022-09-22T00:23:51.541Z,3.66
2022-09-22T00:26:23.217Z,3.70
2022-09-22T00:28:53.259Z,3.61
2022-09-22T00:31:23.172Z,3.66
2022-09-22T00:33:51.937Z,3.70
2022-09-22T00:36:21.732Z,3.64
2022-09-22T00:38:51.512Z,3.65
2022-09-22T00:41:23.350Z,3.56
2022-09-22T00:44:41.239Z,3.54
2022-09-22T00:47:17.531Z,3.53
2022-09-22T00:49:49.751Z,3.55
2022-09-22T00:52:21.682Z,3.61
2022-09-22T00:54:50.202Z,3.54
2022-09-22T00:57:22.461Z,3.44
2022-09-22T00:59:51.891Z,3.42
2022-09-22T01:02:21.260Z,3.37
2022-09-22T01:04:51.814Z,3.22
2022-09-22T01:07:20.581Z,3.14
2022-09-22T01:09:48.841Z,3.17
2022-09-22T01:12:18.252Z,3.01
2022-09-22T01:15:00.118Z,3.07
2022-09-22T01:17:36.491Z,3.03
2022-09-22T01:20:42.666Z,2.99
2022-09-22T01:23:29.095Z,2.93
2022-09-22T01:26:17.351Z,2.97
2022-09-22T01:29:16.168Z,3.00
2022-09-22T01:31:53.161Z,2.99
2022-09-22T01:34:25.692Z,2.98
2022-09-22T01:36:57.731Z,2.96
2022-09-22T01:39:30.054Z,3.02
2022-09-22T01:42:01.880Z,3.07
2022-09-22T01:44:34.201Z,3.02
2022-09-22T01:47:07.422Z,2.89
2022-09-22T01:49:37.581Z,2.87
2022-09-22T01:52:11.341Z,2.80
2022-09-22T01:54:41.672Z,2.84
2022-09-22T01:57:15.324Z,2.89
2022-09-22T01:59:45.751Z,2.81
2022-09-22T02:02:19.132Z,2.75
2022-09-22T02:04:51.105Z,2.78
2022-09-22T02:07:24.623Z,2.69
2022-09-22T02:09:52.901Z,2.71
2022-09-22T02:12:21.119Z,2.68
2022-09-22T02:14:49.361Z,2.69
2022-09-22T02:17:19.383Z,2.70
2022-09-22T02:19:47.581Z,2.69
2022-09-22T02:22:15.919Z,2.65
2022-09-22T02:24:45.559Z,2.62
2022-09-22T02:27:15.102Z,2.63
2022-09-22T02:29:46.820Z,2.71
2022-09-22T02:32:18.601Z,2.81
2022-09-22T02:34:47.381Z,2.79
2022-09-22T02:37:22.685Z,2.77
2022-09-22T02:39:59.596Z,2.78
2022-09-22T02:42:30.159Z,2.77
2022-09-22T02:45:03.061Z,2.79
2022-09-22T02:47:37.043Z,2.85
2022-09-22T02:50:08.581Z,2.92
2022-09-22T02:52:37.865Z,2.90
2022-09-22T02:55:09.023Z,2.85
2022-09-22T02:57:37.485Z,2.95
2022-09-22T03:00:07.063Z,2.88
2022-09-22T03:02:36.571Z,2.80
2022-09-22T03:05:05.217Z,2.81
2022-09-22T03:07:33.764Z,2.77
2022-09-22T03:10:01.961Z,2.66
2022-09-22T03:12:30.151Z,2.75
2022-09-22T03:14:58.273Z,2.75
2022-09-22T03:17:26.373Z,2.74
2022-09-22T03:19:55.916Z,2.74
2022-09-22T03:22:23.991Z,2.57
2022-09-22T03:24:52.082Z,2.55
2022-09-22T03:27:20.201Z,2.66
2022-09-22T03:29:48.421Z,2.62
2022-09-22T03:32:16.527Z,2.62
2022-09-22T03:34:44.641Z,2.67
2022-09-22T03:37:14.116Z,2.64
2022-09-22T03:39:42.222Z,2.61
2022-09-22T03:42:10.700Z,2.51
2022-09-22T03:44:39.050Z,2.50
2022-09-22T03:47:07.121Z,2.51
2022-09-22T03:49:35.127Z,2.57
2022-09-22T03:52:03.462Z,2.58
2022-09-22T03:54:32.807Z,2.55
2022-09-22T03:57:00.787Z,2.54
2022-09-22T03:59:28.736Z,2.49
2022-09-22T04:01:58.372Z,2.49
2022-09-22T04:04:26.527Z,2.46
2022-09-22T04:06:54.517Z,2.47
2022-09-22T04:09:22.527Z,2.48
2022-09-22T04:11:52.140Z,2.46
2022-09-22T04:14:20.107Z,2.43
2022-09-22T04:16:48.085Z,2.43
2022-09-22T04:19:17.027Z,2.44
2022-09-22T04:21:45.387Z,2.39
2022-09-22T04:24:13.397Z,2.41
2022-09-22T04:26:56.405Z,2.41
2022-09-22T04:29:30.918Z,2.36
2022-09-22T04:31:58.907Z,2.33
2022-09-22T04:34:26.908Z,2.40
2022-09-22T04:36:54.911Z,2.40
2022-09-22T04:39:24.028Z,2.39
2022-09-22T04:41:52.444Z,2.37
2022-09-22T04:44:20.404Z,2.31
2022-09-22T04:46:50.589Z,2.31
2022-09-22T04:49:18.928Z,2.25
2022-09-22T04:51:46.917Z,2.26
2022-09-22T04:54:15.087Z,2.31
2022-09-22T04:56:43.135Z,2.29
2022-09-22T04:59:12.003Z,2.31
2022-09-22T05:01:40.214Z,2.38
2022-09-22T05:04:09.616Z,2.38
2022-09-22T05:06:37.627Z,2.42
2022-09-22T05:09:05.921Z,2.48
2022-09-22T05:11:34.409Z,2.59
2022-09-22T05:14:02.788Z,2.71
2022-09-22T05:16:32.422Z,2.69
2022-09-22T05:19:00.548Z,2.79
2022-09-22T05:21:30.138Z,2.84
2022-09-22T05:23:58.364Z,2.83
2022-09-22T05:26:27.207Z,2.73
2022-09-22T05:28:55.418Z,2.68
2022-09-22T05:31:23.435Z,2.79
2022-09-22T05:33:51.490Z,2.88
2022-09-22T05:36:19.397Z,2.99
2022-09-22T05:38:48.727Z,2.91
2022-09-22T05:41:16.677Z,2.92
2022-09-22T05:43:44.647Z,2.98
2022-09-22T05:46:12.612Z,3.01
2022-09-22T05:48:40.658Z,2.96
2022-09-22T05:51:08.567Z,3.09
2022-09-22T05:53:36.538Z,3.35
2022-09-22T05:56:06.190Z,3.28
2022-09-22T05:58:34.767Z,3.32
2022-09-22T06:01:04.525Z,3.30
2022-09-22T06:03:32.580Z,3.34
2022-09-22T06:06:00.508Z,3.34
2022-09-22T06:08:28.487Z,3.55
2022-09-22T06:10:56.407Z,3.71
2022-09-22T06:13:26.383Z,3.86
2022-09-22T06:15:54.323Z,3.91
2022-09-22T06:18:24.798Z,3.85
2022-09-22T06:20:53.137Z,3.86
2022-09-22T06:23:21.139Z,3.87
2022-09-22T06:25:49.077Z,3.88
2022-09-22T06:28:17.217Z,4.12
2022-09-22T06:30:48.560Z,4.27
2022-09-22T06:33:16.527Z,4.04
2022-09-22T06:35:45.475Z,4.05
2022-09-22T06:38:15.487Z,4.29
2022-09-22T06:40:44.002Z,4.47
2022-09-22T06:43:22.713Z,4.59
2022-09-22T06:45:53.197Z,4.76
2022-09-22T06:48:23.895Z,4.91
2022-09-22T06:50:53.647Z,5.03
2022-09-22T06:53:25.777Z,4.96
2022-09-22T06:55:54.961Z,5.00
2022-09-22T06:58:23.420Z,5.24
2022-09-22T07:00:53.892Z,5.13
2022-09-22T07:03:24.501Z,5.07
2022-09-22T07:05:56.581Z,4.97
2022-09-22T07:08:25.570Z,4.89
2022-09-22T07:10:54.907Z,5.07
2022-09-22T07:13:23.027Z,4.88
2022-09-22T07:15:52.578Z,4.75
2022-09-22T07:18:20.608Z,4.82
2022-09-22T07:20:48.526Z,5.07
2022-09-22T07:23:19.197Z,5.54
2022-09-22T07:25:57.209Z,5.75
2022-09-22T07:28:26.056Z,6.15
2022-09-22T07:30:57.449Z,6.28
2022-09-22T07:33:25.406Z,6.59
2022-09-22T07:36:02.058Z,6.90
2022-09-22T07:38:34.060Z,7.11
2022-09-22T07:41:02.329Z,7.45
2022-09-22T07:43:30.329Z,7.68
2022-09-22T07:45:59.667Z,7.81
2022-09-22T07:48:42.687Z,7.47
2022-09-22T07:51:16.520Z,7.53
2022-09-22T07:53:46.251Z,7.69
2022-09-22T07:56:15.539Z,7.92
2022-09-22T07:58:47.007Z,7.86
2022-09-22T08:01:16.407Z,7.66
2022-09-22T08:03:46.487Z,7.76
2022-09-22T08:06:16.238Z,7.81
2022-09-22T08:08:46.359Z,8.12
2022-09-22T08:11:15.735Z,8.29
2022-09-22T08:13:46.337Z,8.05
2022-09-22T08:16:14.507Z,8.11
2022-09-22T08:18:43.890Z,8.18
2022-09-22T08:21:13.415Z,7.89
2022-09-22T08:23:41.877Z,8.11
2022-09-22T08:26:10.376Z,7.94
2022-09-22T08:28:39.144Z,8.18
2022-09-22T08:31:13.014Z,8.38
2022-09-22T08:33:41.340Z,8.57
2022-09-22T08:36:10.757Z,8.72
2022-09-22T08:38:39.067Z,8.62
2022-09-22T08:41:17.658Z,8.80
2022-09-22T08:43:55.551Z,9.17
2022-09-22T08:46:29.027Z,9.30
2022-09-22T08:49:17.915Z,9.49
2022-09-22T08:51:53.906Z,9.22
2022-09-22T08:54:23.368Z,9.67
2022-09-22T08:57:03.498Z,9.96
2022-09-22T08:59:34.237Z,10.05
2022-09-22T09:02:18.967Z,10.33
2022-09-22T09:05:09.007Z,10.39
2022-09-22T09:07:45.907Z,9.70
2022-09-22T09:10:26.925Z,9.63
2022-09-22T09:13:04.125Z,9.93
2022-09-22T09:15:44.255Z,9.88
2022-09-22T09:18:15.406Z,9.88
2022-09-22T09:20:46.683Z,10.03
2022-09-22T09:23:23.221Z,10.17
2022-09-22T09:25:54.487Z,10.21
2022-09-22T09:28:27.690Z,10.17
2022-09-22T09:31:02.501Z,10.38
2022-09-22T09:33:35.247Z,10.64
2022-09-22T09:36:03.648Z,10.83
2022-09-22T09:38:35.607Z,10.99
2022-09-22T09:41:15.058Z,11.02
2022-09-22T09:43:45.812Z,11.28
2022-09-22T09:46:18.582Z,11.42
2022-09-22T09:49:00.338Z,11.61
2022-09-22T09:51:29.797Z,11.67
2022-09-22T09:54:05.599Z,11.71
2022-09-22T09:56:37.109Z,11.90
2022-09-22T09:59:24.153Z,12.18
2022-09-22T10:01:54.130Z,12.35
2022-09-22T10:04:31.447Z,12.40
2022-09-22T10:07:12.975Z,12.52
2022-09-22T10:09:42.590Z,12.68
2022-09-22T10:12:23.643Z,12.66
2022-09-22T10:14:52.777Z,12.73
2022-09-22T10:17:22.244Z,12.06
2022-09-22T10:19:51.200Z,11.95
2022-09-22T10:22:25.867Z,12.51
2022-09-22T10:24:57.938Z,12.83
2022-09-22T10:27:27.219Z,13.14
2022-09-22T10:30:23.747Z,13.26
2022-09-22T10:33:21.857Z,12.97
2022-09-22T10:35:56.191Z,12.61
2022-09-22T10:38:27.182Z,12.54
2022-09-22T10:40:58.606Z,13.02
2022-09-22T10:43:41.717Z,13.44
2022-09-22T10:46:30.307Z,13.07
2022-09-22T10:49:07.532Z,13.21
2022-09-22T10:51:44.141Z,13.58
2022-09-22T10:54:23.577Z,13.35
2022-09-22T10:56:54.737Z,13.38
2022-09-22T10:59:51.528Z,13.07
2022-09-22T11:02:57.358Z,12.90
2022-09-22T11:05:51.475Z,12.99
2022-09-22T11:08:38.335Z,13.31
2022-09-22T11:11:33.635Z,14.00
2022-09-22T11:14:13.987Z,14.41
2022-09-22T11:16:49.977Z,14.73
2022-09-22T11:19:58.912Z,14.80
2022-09-22T11:22:48.954Z,15.02
2022-09-22T11:25:27.210Z,15.13
2022-09-22T11:28:05.647Z,15.10
2022-09-22T11:30:36.980Z,15.01
2022-09-22T11:33:26.157Z,15.21
2022-09-22T11:36:11.095Z,15.07
2022-09-22T11:39:02.828Z,15.20
2022-09-22T11:41:32.797Z,15.49
2022-09-22T11:44:36.473Z,15.72
2022-09-22T11:47:28.449Z,15.77
2022-09-22T11:50:14.252Z,16.18
2022-09-22T11:52:58.411Z,15.96
2022-09-22T11:55:33.192Z,15.75
2022-09-22T11:58:04.796Z,15.55
2022-09-22T12:00:37.047Z,15.82
2022-09-22T12:03:11.350Z,15.21
2022-09-22T12:05:41.736Z,14.88
2022-09-22T12:08:13.268Z,14.94
2022-09-22T12:10:44.726Z,14.78
2022-09-22T12:13:15.497Z,14.66
2022-09-22T12:15:46.862Z,14.48
2022-09-22T12:18:18.266Z,14.87
2022-09-22T12:20:54.886Z,15.08
2022-09-22T12:23:39.310Z,15.02
2022-09-22T12:26:09.400Z,14.84
2022-09-22T12:28:42.527Z,14.82
2022-09-22T12:31:13.228Z,14.68
2022-09-22T12:33:50.496Z,14.47
2022-09-22T12:36:20.196Z,14.33
2022-09-22T12:38:48.182Z,14.46
2022-09-22T12:41:20.307Z,15.24
2022-09-22T12:43:48.928Z,16.21
2022-09-22T12:46:25.267Z,17.97
2022-09-22T12:48:55.117Z,20.88
2022-09-22T12:51:36.116Z,22.77
2022-09-22T12:54:39.147Z,25.00
2022-09-22T12:57:33.037Z,26.81
2022-09-22T13:00:20.806Z,28.16
2022-09-22T13:02:49.986Z,28.64
2022-09-22T13:05:46.375Z,30.26
2022-09-22T13:08:21.257Z,29.61
2022-09-22T13:11:00.200Z,29.72
2022-09-22T13:13:39.986Z,29.91
2022-09-22T13:16:34.649Z,30.04
2022-09-22T13:19:03.306Z,29.08
2022-09-22T13:21:33.517Z,28.55
2022-09-22T13:24:03.914Z,29.09
2022-09-22T13:26:33.566Z,28.89
2022-09-22T13:29:03.747Z,29.15
2022-09-22T13:31:38.247Z,28.64
2022-09-22T13:34:22.922Z,24.56
2022-09-22T13:36:53.837Z,21.67
2022-09-22T13:39:23.928Z,20.22
2022-09-22T13:41:54.690Z,18.94
2022-09-22T13:44:26.226Z,18.41
2022-09-22T13:46:54.407Z,18.26
2022-09-22T13:49:29.197Z,18.04
2022-09-22T13:52:00.977Z,18.08
2022-09-22T13:54:31.837Z,18.34
2022-09-22T13:57:00.137Z,20.14
2022-09-22T13:59:32.127Z,23.28
2022-09-22T14:02:07.433Z,25.93
2022-09-22T14:04:35.975Z,27.45
2022-09-22T14:07:10.038Z,29.18
2022-09-22T14:09:39.859Z,30.70
2022-09-22T14:12:10.414Z,31.04
2022-09-22T14:14:39.878Z,30.99
2022-09-22T14:17:09.648Z,31.86
2022-09-22T14:19:39.909Z,32.48
2022-09-22T14:22:16.797Z,32.70
2022-09-22T14:24:48.750Z,32.32
2022-09-22T14:27:21.577Z,32.22
2022-09-22T14:29:51.297Z,33.23
2022-09-22T14:32:25.497Z,33.26
2022-09-22T14:34:58.519Z,32.66
2022-09-22T14:37:31.878Z,32.51
2022-09-22T14:40:02.015Z,30.98
2022-09-22T14:42:31.447Z,26.26
2022-09-22T14:45:21.202Z,23.33
2022-09-22T14:48:19.322Z,21.52
2022-09-22T14:50:49.500Z,20.32
2022-09-22T14:53:22.302Z,19.19
2022-09-22T14:55:52.661Z,18.29
2022-09-22T14:58:24.000Z,17.63
2022-09-22T15:01:11.846Z,17.53
2022-09-22T15:03:40.749Z,17.46
2022-09-22T15:06:09.999Z,17.21
2022-09-22T15:08:39.508Z,16.97
2022-09-22T15:11:07.719Z,16.58
2022-09-22T15:13:40.791Z,16.19
2022-09-22T15:16:38.800Z,15.95
2022-09-22T15:19:07.934Z,15.91
2022-09-22T15:21:40.814Z,15.72
2022-09-22T15:24:12.312Z,15.33
2022-09-22T15:26:42.027Z,15.23
2022-09-22T15:29:12.316Z,15.03
2022-09-22T15:31:40.590Z,14.97
2022-09-22T15:34:10.068Z,14.93
2022-09-22T15:36:46.019Z,14.80
2022-09-22T15:39:21.568Z,14.78
2022-09-22T15:41:49.989Z,14.53
2022-09-22T15:44:18.337Z,14.39
2022-09-22T15:46:50.688Z,14.33
2022-09-22T15:49:24.729Z,14.30
2022-09-22T15:51:53.118Z,14.11
2022-09-22T15:54:23.741Z,14.03
2022-09-22T15:56:54.042Z,13.97
2022-09-22T15:59:26.971Z,13.91
2022-09-22T16:01:57.467Z,13.78
2022-09-22T16:04:27.631Z,13.71
2022-09-22T16:06:58.809Z,13.62
2022-09-22T16:09:28.781Z,13.50
2022-09-22T16:11:56.885Z,13.42
2022-09-22T16:14:24.975Z,13.29
2022-09-22T16:16:53.098Z,13.15
2022-09-22T16:19:21.458Z,13.03
2022-09-22T16:21:51.367Z,12.92
2022-09-22T16:24:19.606Z,12.85
2022-09-22T16:26:49.206Z,12.74
2022-09-22T16:29:17.247Z,12.67
2022-09-22T16:31:45.298Z,12.55
2022-09-22T16:34:13.475Z,12.39
2022-09-22T16:36:41.930Z,12.24
2022-09-22T16:39:10.280Z,12.01
2022-09-22T16:41:38.577Z,11.86
2022-09-22T16:44:08.047Z,11.85
2022-09-22T16:46:38.012Z,11.72
2022-09-22T16:49:08.430Z,11.61
2022-09-22T16:51:39.538Z,11.67
2022-09-22T16:54:09.048Z,11.64
2022-09-22T16:56:39.112Z,11.50
2022-09-22T16:59:09.077Z,11.41
2022-09-22T17:01:38.453Z,11.22
2022-09-22T17:04:07.823Z,11.04
2022-09-22T17:06:37.837Z,10.89
2022-09-22T17:09:07.109Z,10.66
2022-09-22T17:11:37.546Z,10.50
2022-09-22T17:14:12.166Z,10.34
2022-09-22T17:16:43.094Z,10.20
2022-09-22T17:19:12.869Z,10.01
2022-09-22T17:21:41.346Z,9.88
2022-09-22T17:24:09.947Z,9.78
2022-09-22T17:26:40.836Z,9.63
2022-09-22T17:29:11.010Z,9.52
2022-09-22T17:31:40.115Z,9.34
2022-09-22T17:34:09.942Z,9.30
2022-09-22T17:36:38.025Z,9.24
2022-09-22T17:39:06.895Z,9.15
2022-09-22T17:41:35.416Z,9.07
2022-09-22T17:44:04.670Z,9.00
2022-09-22T17:46:34.662Z,9.01
2022-09-22T17:49:20.435Z,8.91
2022-09-22T17:52:08.015Z,8.78
2022-09-22T17:54:55.193Z,8.54
2022-09-22T17:57:24.701Z,8.36
2022-09-22T17:59:54.441Z,8.10
2022-09-22T18:02:22.560Z,8.18
2022-09-22T18:04:50.759Z,8.15
2022-09-22T18:07:21.308Z,8.11
2022-09-22T18:09:50.827Z,8.11
2022-09-22T18:12:21.759Z,8.12
2022-09-22T18:14:52.276Z,8.09
2022-09-22T18:17:21.805Z,7.93
2022-09-22T18:19:49.903Z,7.76
2022-09-22T18:22:21.309Z,7.68
2022-09-22T18:24:50.721Z,7.66
2022-09-22T18:27:19.648Z,7.65
2022-09-22T18:29:50.142Z,7.76
2022-09-22T18:32:19.812Z,7.78
2022-09-22T18:34:51.339Z,7.70
2022-09-22T18:37:21.037Z,7.64
2022-09-22T18:39:50.885Z,7.69
2022-09-22T18:42:19.335Z,7.73
2022-09-22T18:44:48.399Z,7.74
2022-09-22T18:47:18.664Z,7.78
2022-09-22T18:49:48.376Z,7.72
2022-09-22T18:52:18.327Z,7.63
2022-09-22T18:54:47.947Z,7.60
2022-09-22T18:57:16.029Z,7.54
2022-09-22T18:59:44.460Z,7.56
2022-09-22T19:02:13.118Z,7.40
2022-09-22T19:04:41.679Z,7.20
2022-09-22T19:07:27.647Z,7.08
2022-09-22T19:09:57.173Z,6.95
2022-09-22T19:12:25.313Z,6.93
2022-09-22T19:14:54.672Z,6.95
2022-09-22T19:17:24.539Z,6.95
2022-09-22T19:19:52.869Z,6.98
2022-09-22T19:22:23.383Z,6.85
2022-09-22T19:24:52.691Z,6.77
2022-09-22T19:27:22.862Z,6.74
2022-09-22T19:29:52.056Z,6.60
2022-09-22T19:32:20.099Z,6.45
2022-09-22T19:34:51.713Z,6.30
2022-09-22T19:37:19.797Z,6.18
2022-09-22T19:39:50.030Z,6.17
2022-09-22T19:42:19.090Z,6.05
2022-09-22T19:44:48.651Z,6.11
2022-09-22T19:47:17.166Z,6.06
2022-09-22T19:49:45.268Z,5.99
2022-09-22T19:52:13.538Z,5.88
2022-09-22T19:54:41.597Z,5.82
2022-09-22T19:57:09.667Z,5.80
2022-09-22T19:59:37.799Z,5.74
2022-09-22T20:02:12.787Z,5.78
2022-09-22T20:04:40.919Z,5.79
2022-09-22T20:07:11.010Z,5.74
2022-09-22T20:09:39.198Z,5.67
2022-09-22T20:12:07.758Z,5.65
2022-09-22T20:14:35.883Z,5.74
2022-09-22T20:17:07.237Z,5.62
2022-09-22T20:19:38.499Z,5.45
2022-09-22T20:22:25.563Z,5.45
2022-09-22T20:24:55.829Z,5.47
2022-09-22T20:27:25.980Z,5.53
2022-09-22T20:29:57.262Z,5.53
2022-09-22T20:32:28.762Z,5.60
2022-09-22T20:34:57.813Z,5.65
2022-09-22T20:37:26.143Z,5.73
2022-09-22T20:39:54.566Z,5.78
2022-09-22T20:42:23.897Z,5.74
2022-09-22T20:44:52.113Z,5.69
2022-09-22T20:47:22.040Z,5.60
2022-09-22T20:49:52.074Z,5.62
2022-09-22T20:52:21.127Z,5.64
2022-09-22T20:54:49.602Z,5.64
2022-09-22T20:57:17.680Z,5.57
2022-09-22T20:59:46.189Z,5.55
2022-09-22T21:02:15.028Z,5.56
2022-09-22T21:04:43.737Z,5.52
2022-09-22T21:07:13.159Z,5.42
2022-09-22T21:09:59.009Z,5.24
2022-09-22T21:12:30.926Z,5.01
2022-09-22T21:14:59.549Z,4.95
2022-09-22T21:17:29.913Z,4.83
2022-09-22T21:19:58.401Z,4.80
2022-09-22T21:22:28.413Z,4.77
2022-09-22T21:24:56.613Z,4.81
2022-09-22T21:27:25.232Z,4.72
2022-09-22T21:29:53.352Z,4.76
2022-09-22T21:32:21.419Z,4.72
2022-09-22T21:34:49.532Z,4.60
2022-09-22T21:37:17.531Z,4.54
2022-09-22T21:39:47.019Z,4.45
2022-09-22T21:42:15.059Z,4.35
2022-09-22T21:44:43.341Z,4.22
2022-09-22T21:47:11.762Z,4.08
2022-09-22T21:49:39.926Z,4.19
2022-09-22T21:52:07.988Z,4.30
2022-09-22T21:54:36.090Z,4.38
2022-09-22T21:57:05.696Z,4.28
2022-09-22T21:59:33.818Z,4.19
2022-09-22T22:02:01.897Z,4.10
2022-09-22T22:04:30.150Z,4.16
2022-09-22T22:06:58.281Z,4.14
2022-09-22T22:09:26.601Z,4.19
2022-09-22T22:11:56.648Z,4.12
2022-09-22T22:14:28.286Z,4.08
2022-09-22T22:16:56.606Z,4.00
2022-09-22T22:19:27.204Z,3.94
2022-09-22T22:21:55.787Z,3.89
2022-09-22T22:24:29.204Z,3.86
2022-09-22T22:27:01.453Z,3.84
2022-09-22T22:29:32.117Z,3.83
2022-09-22T22:32:00.526Z,3.79
2022-09-22T22:34:28.811Z,3.78
2022-09-22T22:36:58.626Z,3.80
2022-09-22T22:39:26.839Z,3.78
2022-09-22T22:41:55.748Z,3.76
2022-09-22T22:44:24.807Z,3.67
2022-09-22T22:46:54.230Z,3.59
2022-09-22T22:49:22.308Z,3.60
2022-09-22T22:51:52.508Z,3.59
2022-09-22T22:54:20.588Z,3.61
2022-09-22T22:56:51.234Z,3.56
2022-09-22T22:59:20.326Z,3.52
2022-09-22T23:01:48.498Z,3.51
2022-09-22T23:04:17.960Z,3.35
2022-09-22T23:06:47.538Z,3.43
2022-09-22T23:09:17.271Z,3.38
2022-09-22T23:11:46.758Z,3.29
2022-09-22T23:14:16.254Z,3.33
2022-09-22T23:16:46.386Z,3.37
2022-09-22T23:19:18.590Z,3.34
2022-09-22T23:21:47.411Z,3.30
2022-09-22T23:24:16.846Z,3.27
2022-09-22T23:26:45.354Z,3.27
2022-09-22T23:29:13.658Z,3.29
2022-09-22T23:31:41.767Z,3.20
2022-09-22T23:34:09.846Z,3.15
2022-09-22T23:36:39.746Z,3.14
2022-09-22T23:39:08.051Z,3.14
2022-09-22T23:41:37.979Z,3.17
2022-09-22T23:44:06.949Z,3.24
2022-09-22T23:46:35.609Z,3.31
2022-09-22T23:49:03.711Z,3.25
2022-09-22T23:51:31.818Z,3.28
2022-09-22T23:54:01.285Z,3.26
2022-09-22T23:56:29.538Z,3.25
2022-09-22T23:58:58.030Z,3.19
